Time;durP1;ratioP1;P1;durP2;ratioP2;P2;SDS_P1;SDS_P2;PMS_P1;PMS_P2;Temp;Humidity;BMP_temperature;BMP_pressure;BME280_temperature;BME280_humidity;BME280_pressure;Samples;Min_cycle;Max_cycle;Signal;HPM_P1;HPM_P2
2021/05/09 00:00:15;;;;;;;3.42;3.20;;;14.30;55.50;;;;;;5113528;28;20229;-68
2021/05/09 00:02:41;;;;;;;4.90;4.35;;;14.30;55.40;;;;;;5113985;27;20232;-66
2021/05/09 00:05:09;;;;;;;5.35;3.75;;;14.30;55.50;;;;;;5113395;27;20231;-68
2021/05/09 00:07:36;;;;;;;4.82;3.90;;;14.30;55.70;;;;;;5113666;27;20292;-68
2021/05/09 00:10:04;;;;;;;4.85;4.00;;;14.30;55.70;;;;;;5113501;27;20233;-68
2021/05/09 00:12:31;;;;;;;6.38;4.10;;;14.20;55.50;;;;;;5109834;27;20219;-68
2021/05/09 00:14:57;;;;;;;4.30;4.00;;;14.20;55.70;;;;;;5113305;27;20222;-67
2021/05/09 00:17:24;;;;;;;4.43;4.03;;;14.30;55.70;;;;;;5112783;27;20754;-68
2021/05/09 00:19:50;;;;;;;4.00;3.70;;;14.30;55.80;;;;;;5112935;27;20283;-68
2021/05/09 00:22:17;;;;;;;3.88;3.58;;;14.30;55.80;;;;;;5113291;27;20234;-68
2021/05/09 00:24:43;;;;;;;4.22;3.92;;;14.30;55.80;;;;;;5113265;27;20241;-67
2021/05/09 00:27:09;;;;;;;4.13;3.83;;;14.30;55.80;;;;;;5111991;27;20218;-67
2021/05/09 00:29:37;;;;;;;4.90;4.50;;;14.40;56.00;;;;;;5112954;27;20234;-68
2021/05/09 00:32:04;;;;;;;4.53;4.13;;;14.40;56.10;;;;;;5110741;27;20430;-68
2021/05/09 00:34:30;;;;;;;4.10;3.65;;;14.40;56.00;;;;;;5112866;28;20226;-68
2021/05/09 00:36:57;;;;;;;4.90;4.13;;;14.40;56.00;;;;;;5119068;27;20222;-67
2021/05/09 00:39:23;;;;;;;4.32;3.97;;;14.40;56.00;;;;;;5117499;27;20230;-67
2021/05/09 00:41:49;;;;;;;3.88;3.58;;;14.40;56.00;;;;;;5113274;28;20215;-67
2021/05/09 00:44:16;;;;;;;3.83;3.45;;;14.40;56.00;;;;;;5112771;28;20570;-67
2021/05/09 00:46:43;;;;;;;4.70;4.30;;;14.40;56.00;;;;;;5113192;28;20230;-67
2021/05/09 00:49:10;;;;;;;4.45;4.13;;;14.40;56.00;;;;;;5112777;27;20244;-67
2021/05/09 00:51:36;;;;;;;3.97;3.67;;;14.40;55.90;;;;;;5113296;27;20240;-67
2021/05/09 00:54:03;;;;;;;3.80;3.60;;;14.40;55.90;;;;;;5112669;28;20218;-67
2021/05/09 00:56:30;;;;;;;3.58;3.30;;;14.40;56.00;;;;;;5113240;27;20214;-67
2021/05/09 00:58:57;;;;;;;3.70;3.30;;;14.50;56.10;;;;;;5111853;27;20249;-68
2021/05/09 01:01:24;;;;;;;3.45;3.15;;;14.50;56.10;;;;;;5113179;28;20283;-68
2021/05/09 01:03:53;;;;;;;3.80;3.50;;;14.50;56.40;;;;;;5113148;28;20218;-67
2021/05/09 01:06:20;;;;;;;3.40;3.20;;;14.50;57.10;;;;;;5112780;28;20991;-67
2021/05/09 01:08:47;;;;;;;3.72;3.42;;;14.60;57.30;;;;;;5112106;28;20231;-68
2021/05/09 01:11:14;;;;;;;4.97;4.28;;;14.60;57.30;;;;;;5112624;28;20234;-68
2021/05/09 01:13:40;;;;;;;4.10;3.80;;;14.50;56.70;;;;;;5113112;28;20578;-68
2021/05/09 01:16:07;;;;;;;4.50;4.20;;;14.50;56.70;;;;;;5112541;27;20283;-67
2021/05/09 01:18:33;;;;;;;7.32;3.92;;;14.50;57.00;;;;;;5106925;27;20213;-67
2021/05/09 01:21:01;;;;;;;4.65;4.18;;;14.50;57.00;;;;;;5115904;27;20215;-67
2021/05/09 01:23:27;;;;;;;4.20;3.85;;;14.50;56.90;;;;;;5112651;27;20218;-67
2021/05/09 01:25:53;;;;;;;4.38;3.97;;;14.50;57.00;;;;;;5111426;27;20246;-67
2021/05/09 01:28:20;;;;;;;4.75;4.35;;;14.50;57.10;;;;;;5110819;27;20233;-68
2021/05/09 01:30:46;;;;;;;4.55;3.38;;;14.40;57.20;;;;;;5112589;28;20225;-67
2021/05/09 01:33:13;;;;;;;4.32;3.92;;;14.40;57.20;;;;;;5102345;28;20222;-68
2021/05/09 01:35:39;;;;;;;4.75;3.65;;;14.40;57.30;;;;;;5112390;28;20222;-68
2021/05/09 01:38:07;;;;;;;3.45;3.15;;;14.40;57.40;;;;;;5112252;28;20234;-67
2021/05/09 01:40:33;;;;;;;4.00;3.60;;;14.40;57.50;;;;;;5112199;28;20288;-67
2021/05/09 01:43:00;;;;;;;4.45;4.05;;;14.50;57.70;;;;;;5112067;28;20226;-67
2021/05/09 01:45:26;;;;;;;4.20;3.90;;;14.50;57.60;;;;;;5112549;28;20223;-67
2021/05/09 01:47:52;;;;;;;4.40;4.00;;;14.50;57.60;;;;;;5112383;27;20291;-67
2021/05/09 01:50:20;;;;;;;4.32;3.70;;;14.50;57.60;;;;;;5112208;28;20230;-67
2021/05/09 01:52:47;;;;;;;4.57;4.00;;;14.50;57.60;;;;;;5112772;28;20214;-67
2021/05/09 01:55:21;;;;;;;4.38;3.97;;;14.60;57.90;;;;;;5111871;28;20229;-68
2021/05/09 01:57:48;;;;;;;3.65;3.45;;;14.60;58.00;;;;;;5112532;28;20236;-67
2021/05/09 02:00:17;;;;;;;4.10;3.80;;;14.60;58.00;;;;;;5111763;27;20287;-67
2021/05/09 02:02:43;;;;;;;3.72;3.42;;;14.60;58.10;;;;;;5112483;28;20279;-68
2021/05/09 02:05:11;;;;;;;4.80;4.40;;;14.60;58.10;;;;;;5111948;28;20227;-68
2021/05/09 02:07:38;;;;;;;4.18;3.55;;;14.50;58.20;;;;;;5112333;28;20242;-67
2021/05/09 02:10:05;;;;;;;4.88;4.22;;;14.50;58.20;;;;;;5112437;27;20218;-67
2021/05/09 02:12:32;;;;;;;4.00;3.70;;;14.50;58.30;;;;;;5116212;27;20226;-67
2021/05/09 02:14:59;;;;;;;4.25;3.88;;;14.50;58.40;;;;;;5116230;28;20305;-67
2021/05/09 02:17:26;;;;;;;3.65;3.13;;;14.50;58.50;;;;;;5115724;28;20922;-67
2021/05/09 02:19:52;;;;;;;3.65;3.35;;;14.50;58.70;;;;;;5116168;27;20218;-68
2021/05/09 02:22:19;;;;;;;4.40;4.10;;;14.50;58.70;;;;;;5115553;28;20291;-68
2021/05/09 02:24:45;;;;;;;4.10;3.75;;;14.50;58.80;;;;;;5115981;27;20225;-67
2021/05/09 02:27:12;;;;;;;4.00;3.65;;;14.50;58.90;;;;;;5109766;27;20317;-67
2021/05/09 02:29:39;;;;;;;3.67;3.38;;;14.50;59.10;;;;;;5115810;27;20222;-67
2021/05/09 02:32:06;;;;;;;3.97;3.55;;;14.50;59.00;;;;;;5115638;28;20238;-67
2021/05/09 02:34:34;;;;;;;3.85;3.50;;;14.50;59.00;;;;;;5115778;27;20226;-68
2021/05/09 02:37:01;;;;;;;3.20;3.00;;;14.50;59.60;;;;;;5115736;28;20222;-68
2021/05/09 02:39:28;;;;;;;3.92;3.72;;;14.40;59.00;;;;;;5115337;28;20219;-67
2021/05/09 02:41:54;;;;;;;3.75;3.38;;;14.50;59.10;;;;;;5115835;28;20218;-67
2021/05/09 02:44:21;;;;;;;4.07;3.78;;;14.50;59.20;;;;;;5101934;28;20219;-67
2021/05/09 02:46:48;;;;;;;3.78;3.47;;;14.50;59.30;;;;;;5115725;28;20231;-67
2021/05/09 02:49:14;;;;;;;4.15;3.50;;;14.40;59.30;;;;;;5103859;28;20218;-67
2021/05/09 02:51:41;;;;;;;4.20;3.80;;;14.40;59.60;;;;;;5115374;28;20460;-68
2021/05/09 02:54:07;;;;;;;4.40;3.63;;;14.50;59.60;;;;;;5115342;28;20219;-67
2021/05/09 02:56:34;;;;;;;3.88;3.58;;;14.40;59.60;;;;;;5115673;27;20226;-67
2021/05/09 02:59:01;;;;;;;3.70;3.47;;;14.50;59.70;;;;;;5115353;28;20231;-67
2021/05/09 03:01:27;;;;;;;3.40;3.20;;;14.40;59.80;;;;;;5115065;27;20218;-67
2021/05/09 03:03:55;;;;;;;4.28;3.97;;;14.50;60.00;;;;;;5115594;28;20230;-68
2021/05/09 03:06:21;;;;;;;4.10;3.80;;;14.40;60.00;;;;;;5114748;27;20222;-68
2021/05/09 03:08:48;;;;;;;5.22;3.50;;;14.40;60.10;;;;;;5115209;28;20565;-67
2021/05/09 03:11:14;;;;;;;4.20;3.80;;;14.50;60.40;;;;;;5114699;28;20219;-67
2021/05/09 03:13:41;;;;;;;5.43;3.85;;;14.40;60.50;;;;;;5115490;28;20676;-68
2021/05/09 03:16:07;;;;;;;3.90;3.60;;;14.40;60.60;;;;;;5114781;28;20227;-67
2021/05/09 03:18:33;;;;;;;3.50;3.20;;;14.40;60.50;;;;;;5114840;28;20223;-67
2021/05/09 03:21:03;;;;;;;4.30;4.00;;;14.40;60.60;;;;;;5115182;28;20222;-67
2021/05/09 03:23:29;;;;;;;4.72;4.32;;;14.40;60.90;;;;;;5113726;28;20222;-67
2021/05/09 03:25:56;;;;;;;6.30;5.80;;;14.40;61.00;;;;;;5114619;28;20219;-68
2021/05/09 03:28:22;;;;;;;6.15;5.57;;;14.40;62.00;;;;;;5111667;27;20714;-68
2021/05/09 03:30:49;;;;;;;4.63;4.22;;;14.40;61.50;;;;;;5115107;28;20571;-68
2021/05/09 03:33:15;;;;;;;5.15;4.80;;;14.30;61.90;;;;;;5114415;27;20245;-68
2021/05/09 03:35:41;;;;;;;4.40;4.10;;;14.20;61.80;;;;;;5114671;28;20222;-67
2021/05/09 03:38:09;;;;;;;3.90;3.60;;;14.20;61.90;;;;;;5114343;28;20237;-68
2021/05/09 03:40:35;;;;;;;3.67;3.40;;;14.20;62.30;;;;;;5114461;27;20226;-67
2021/05/09 03:43:02;;;;;;;4.35;3.95;;;14.30;62.60;;;;;;5114812;28;20610;-68
2021/05/09 03:45:28;;;;;;;3.63;3.25;;;14.30;62.60;;;;;;5113971;27;20235;-68
2021/05/09 03:47:55;;;;;;;3.63;3.33;;;14.20;62.70;;;;;;5114504;27;20229;-68
2021/05/09 03:50:21;;;;;;;3.85;3.55;;;14.20;62.80;;;;;;5114000;28;20230;-68
2021/05/09 03:52:48;;;;;;;4.88;4.47;;;14.20;63.10;;;;;;5114663;28;20551;-68
2021/05/09 03:55:15;;;;;;;4.45;4.15;;;14.20;63.20;;;;;;5113946;28;20222;-67
2021/05/09 03:57:41;;;;;;;5.90;4.25;;;14.20;63.30;;;;;;5114582;27;20560;-67
2021/05/09 04:00:09;;;;;;;3.83;3.53;;;14.20;63.40;;;;;;5113978;28;20230;-67
2021/05/09 04:02:36;;;;;;;3.92;3.72;;;14.20;63.50;;;;;;5114142;28;20219;-67
2021/05/09 04:05:02;;;;;;;4.13;3.83;;;14.20;63.70;;;;;;5114121;28;20230;-68
2021/05/09 04:07:28;;;;;;;4.13;3.83;;;14.20;63.80;;;;;;5113689;28;20612;-67
2021/05/09 04:09:55;;;;;;;4.70;4.28;;;14.20;64.10;;;;;;5114124;27;20233;-68
2021/05/09 04:12:22;;;;;;;4.07;3.22;;;14.20;64.20;;;;;;5113744;28;20223;-68
2021/05/09 04:14:49;;;;;;;3.92;3.63;;;14.20;64.30;;;;;;5114154;27;20230;-68
2021/05/09 04:17:15;;;;;;;5.00;4.50;;;14.30;64.50;;;;;;5113605;28;20230;-67
2021/05/09 04:19:41;;;;;;;4.03;3.63;;;14.20;65.40;;;;;;5113965;28;20222;-68
2021/05/09 04:22:08;;;;;;;7.38;3.85;;;14.20;64.50;;;;;;5114005;28;20234;-68
2021/05/09 04:24:34;;;;;;;4.35;4.05;;;14.20;64.50;;;;;;5113403;28;20238;-68
2021/05/09 04:27:01;;;;;;;3.47;3.28;;;14.20;64.70;;;;;;5113111;27;20230;-67
2021/05/09 04:29:28;;;;;;;4.13;3.72;;;14.20;64.90;;;;;;5113376;27;20256;-67
2021/05/09 04:31:54;;;;;;;4.43;3.95;;;14.20;65.00;;;;;;5113500;28;20222;-67
2021/05/09 04:34:21;;;;;;;3.40;3.10;;;14.10;65.20;;;;;;5111844;27;20225;-68
2021/05/09 04:36:47;;;;;;;4.10;3.80;;;14.10;65.30;;;;;;5104684;28;20276;-67
2021/05/09 04:39:14;;;;;;;4.25;3.42;;;14.10;65.40;;;;;;5113074;27;20227;-67
2021/05/09 04:41:40;;;;;;;4.40;3.60;;;14.20;66.40;;;;;;5113641;27;20591;-67
2021/05/09 04:44:07;;;;;;;3.80;3.50;;;14.20;65.70;;;;;;5113434;28;20219;-67
2021/05/09 04:46:34;;;;;;;4.57;4.20;;;14.20;65.80;;;;;;5112769;27;20236;-67
2021/05/09 04:49:01;;;;;;;4.20;3.63;;;14.20;66.00;;;;;;5113217;27;20294;-67
2021/05/09 04:51:27;;;;;;;3.97;3.67;;;14.10;66.10;;;;;;5112944;28;20242;-67
2021/05/09 04:53:53;;;;;;;4.82;4.30;;;14.10;66.10;;;;;;5112980;28;20214;-67
2021/05/09 04:56:20;;;;;;;4.38;4.07;;;14.20;66.40;;;;;;5112782;27;20223;-67
2021/05/09 04:58:46;;;;;;;3.95;3.65;;;14.10;66.30;;;;;;5112952;28;20223;-67
2021/05/09 05:01:14;;;;;;;3.65;3.45;;;14.20;66.70;;;;;;5113037;27;20312;-67
2021/05/09 05:03:41;;;;;;;4.57;4.18;;;14.20;66.70;;;;;;5112646;28;20685;-67
2021/05/09 05:06:08;;;;;;;3.70;3.40;;;14.20;66.80;;;;;;5112958;28;20226;-67
2021/05/09 05:08:34;;;;;;;3.25;3.05;;;14.20;66.70;;;;;;5112628;28;20227;-67
2021/05/09 05:11:04;;;;;;;3.88;3.58;;;14.30;66.80;;;;;;5113125;27;20322;-67
2021/05/09 05:13:32;;;;;;;3.28;3.08;;;14.30;67.10;;;;;;5112606;28;20237;-67
2021/05/09 05:15:59;;;;;;;3.50;3.28;;;14.40;67.20;;;;;;5112994;28;20226;-67
2021/05/09 05:18:26;;;;;;;3.55;3.25;;;14.40;67.20;;;;;;5112471;28;20564;-67
2021/05/09 05:20:57;;;;;;;4.78;4.15;;;14.40;67.10;;;;;;5112991;28;20226;-67
2021/05/09 05:23:23;;;;;;;4.25;3.85;;;14.50;67.10;;;;;;5112575;28;20305;-67
2021/05/09 05:25:50;;;;;;;3.40;3.20;;;14.50;67.20;;;;;;5112786;28;20226;-67
2021/05/09 05:28:16;;;;;;;3.80;3.50;;;14.60;67.20;;;;;;5112523;27;20297;-67
2021/05/09 05:30:45;;;;;;;4.10;3.40;;;14.70;67.30;;;;;;5112700;28;21261;-67
2021/05/09 05:33:24;;;;;;;4.13;3.83;;;14.70;67.30;;;;;;5112957;28;20546;-67
2021/05/09 05:35:51;;;;;;;3.90;2.97;;;14.80;67.60;;;;;;5112529;28;20231;-67
2021/05/09 05:38:18;;;;;;;3.88;3.47;;;14.80;67.60;;;;;;5112706;28;20692;-67
2021/05/09 05:40:44;;;;;;;4.50;4.10;;;14.90;67.60;;;;;;5112416;28;20222;-67
2021/05/09 05:43:11;;;;;;;3.83;3.42;;;14.90;67.80;;;;;;5112695;28;20223;-67
2021/05/09 05:45:38;;;;;;;3.35;2.83;;;15.10;68.00;;;;;;5113834;28;20237;-67
2021/05/09 05:48:05;;;;;;;3.67;3.33;;;15.20;68.10;;;;;;5116675;28;20289;-67
2021/05/09 05:50:32;;;;;;;3.78;3.47;;;15.30;67.90;;;;;;5116627;27;20226;-67
2021/05/09 05:52:58;;;;;;;3.13;2.83;;;15.40;67.90;;;;;;5116872;28;20218;-67
2021/05/09 05:55:25;;;;;;;4.20;3.47;;;15.50;67.80;;;;;;5116797;28;20965;-67
2021/05/09 05:57:52;;;;;;;3.50;3.20;;;15.60;67.60;;;;;;5115982;28;20249;-67
2021/05/09 06:00:19;;;;;;;4.03;3.63;;;15.70;67.80;;;;;;5116585;27;20714;-67
2021/05/09 06:02:46;;;;;;;7.07;5.63;;;15.80;67.90;;;;;;5115652;27;20233;-67
2021/05/09 06:05:13;;;;;;;5.20;4.37;;;15.90;67.80;;;;;;5116458;28;20460;-67
2021/05/09 06:07:40;;;;;;;5.30;4.80;;;15.90;67.80;;;;;;5116284;28;20476;-67
2021/05/09 06:10:07;;;;;;;5.10;4.70;;;16.10;67.60;;;;;;5116266;28;20520;-67
2021/05/09 06:12:34;;;;;;;4.30;3.90;;;16.10;67.30;;;;;;5102368;28;20548;-67
2021/05/09 06:15:01;;;;;;;4.93;4.10;;;16.20;67.00;;;;;;5116622;28;20526;-67
2021/05/09 06:17:27;;;;;;;3.40;3.07;;;16.20;66.90;;;;;;5116324;28;20799;-67
2021/05/09 06:19:54;;;;;;;3.20;2.90;;;16.30;66.90;;;;;;5115994;28;21033;-67
2021/05/09 06:22:20;;;;;;;3.23;3.03;;;16.40;67.20;;;;;;5116298;28;20856;-67
2021/05/09 06:24:46;;;;;;;3.50;2.73;;;16.50;67.30;;;;;;5115607;27;20468;-67
2021/05/09 06:27:13;;;;;;;2.70;2.50;;;16.50;67.00;;;;;;5115815;27;20489;-68
2021/05/09 06:29:41;;;;;;;7.03;3.23;;;16.60;67.20;;;;;;5115747;27;20467;-68
2021/05/09 06:32:08;;;;;;;4.13;3.10;;;16.70;67.60;;;;;;5116121;28;20475;-67
2021/05/09 06:34:34;;;;;;;3.33;3.03;;;16.80;67.30;;;;;;5115414;28;20514;-68
2021/05/09 06:37:01;;;;;;;2.70;2.50;;;16.80;66.70;;;;;;5116028;28;20476;-68
2021/05/09 06:39:29;;;;;;;3.07;2.83;;;16.80;66.50;;;;;;5115729;28;20527;-68
2021/05/09 06:41:58;;;;;;;2.63;2.43;;;16.90;66.60;;;;;;5115619;28;20459;-68
2021/05/09 06:44:28;;;;;;;2.40;2.20;;;17.00;66.90;;;;;;5115835;28;20594;-68
2021/05/09 06:46:55;;;;;;;2.73;2.53;;;17.10;66.90;;;;;;5115074;28;20532;-67
2021/05/09 06:49:22;;;;;;;4.13;3.63;;;17.20;67.00;;;;;;5115706;27;20479;-68
2021/05/09 06:51:50;;;;;;;3.83;3.10;;;17.30;67.10;;;;;;5115151;28;20950;-68
2021/05/09 06:54:16;;;;;;;5.70;4.87;;;17.30;67.40;;;;;;5115425;28;20496;-66
2021/05/09 06:56:42;;;;;;;6.20;4.43;;;17.40;67.30;;;;;;5114105;28;20464;-66
2021/05/09 06:59:09;;;;;;;4.10;3.80;;;17.40;66.90;;;;;;5114751;28;20465;-67
2021/05/09 07:01:35;;;;;;;4.40;4.00;;;17.50;67.40;;;;;;5115201;28;20471;-68
2021/05/09 07:04:03;;;;;;;3.97;3.67;;;17.60;67.40;;;;;;5115460;28;20468;-67
2021/05/09 07:06:29;;;;;;;3.73;3.43;;;17.70;67.80;;;;;;5115143;27;20460;-67
2021/05/09 07:08:56;;;;;;;2.90;2.33;;;17.80;67.40;;;;;;5114533;28;20929;-68
2021/05/09 07:11:22;;;;;;;2.63;2.40;;;17.90;66.70;;;;;;5115141;27;20525;-67
2021/05/09 07:13:49;;;;;;;3.00;2.70;;;17.90;66.60;;;;;;5114910;27;20806;-68
2021/05/09 07:16:15;;;;;;;2.97;2.70;;;18.00;66.50;;;;;;5115501;28;20465;-67
2021/05/09 07:18:42;;;;;;;3.83;2.90;;;18.20;66.20;;;;;;5114556;28;20464;-68
2021/05/09 07:21:13;;;;;;;3.60;3.30;;;18.40;66.30;;;;;;5115104;28;20981;-67
2021/05/09 07:23:45;;;;;;;2.40;2.20;;;18.60;66.70;;;;;;5114708;27;20468;-67
2021/05/09 07:26:12;;;;;;;3.10;2.87;;;18.70;65.00;;;;;;5114888;28;20469;-66
2021/05/09 07:28:38;;;;;;;2.40;2.20;;;18.90;65.10;;;;;;5114125;27;20464;-66
2021/05/09 07:31:05;;;;;;;2.13;2.03;;;19.10;63.90;;;;;;5115050;27;20618;-66
2021/05/09 07:33:31;;;;;;;2.10;1.90;;;19.30;63.20;;;;;;5114674;28;20505;-66
2021/05/09 07:35:57;;;;;;;4.10;2.13;;;19.50;63.40;;;;;;5114306;27;20950;-66
2021/05/09 07:38:25;;;;;;;3.97;3.67;;;19.60;62.80;;;;;;5114685;28;20495;-66
2021/05/09 07:40:51;;;;;;;7.03;5.80;;;19.70;62.80;;;;;;5114198;28;20771;-66
2021/05/09 07:43:18;;;;;;;4.50;3.00;;;19.80;62.90;;;;;;5114764;28;20529;-66
2021/05/09 07:45:45;;;;;;;2.93;2.60;;;19.90;62.90;;;;;;5114211;27;20468;-67
2021/05/09 07:48:12;;;;;;;2.80;2.27;;;20.00;63.00;;;;;;5114294;28;20488;-67
2021/05/09 07:50:40;;;;;;;2.33;2.13;;;20.00;61.90;;;;;;5113989;28;20477;-67
2021/05/09 07:53:07;;;;;;;2.43;2.23;;;20.10;62.10;;;;;;5109961;28;20625;-67
2021/05/09 07:55:35;;;;;;;2.97;2.73;;;20.20;61.90;;;;;;5114093;28;20484;-67
2021/05/09 07:58:01;;;;;;;2.40;2.20;;;20.30;61.90;;;;;;5113860;28;20519;-67
2021/05/09 08:00:27;;;;;;;2.23;2.03;;;20.40;62.20;;;;;;5114237;28;20477;-67
2021/05/09 08:02:54;;;;;;;2.50;2.27;;;20.50;62.60;;;;;;5113990;28;20469;-67
2021/05/09 08:05:22;;;;;;;2.60;1.83;;;20.60;61.90;;;;;;5114313;28;20463;-67
2021/05/09 08:07:50;;;;;;;1.77;1.60;;;20.50;61.50;;;;;;5113527;28;20953;-67
2021/05/09 08:10:17;;;;;;;2.17;2.03;;;20.60;61.50;;;;;;5113667;28;20462;-67
2021/05/09 08:12:44;;;;;;;1.83;1.73;;;20.70;61.00;;;;;;5113846;27;20470;-67
2021/05/09 08:15:11;;;;;;;2.80;2.10;;;20.70;61.30;;;;;;5114078;28;20468;-67
2021/05/09 08:17:38;;;;;;;1.87;1.77;;;20.90;61.70;;;;;;5113431;28;20482;-67
2021/05/09 08:20:05;;;;;;;2.00;1.80;;;20.90;61.00;;;;;;5113889;28;20474;-67
2021/05/09 08:22:32;;;;;;;2.80;2.30;;;21.00;60.90;;;;;;5113850;28;20468;-68
2021/05/09 08:24:59;;;;;;;3.80;2.90;;;21.10;61.70;;;;;;5113288;27;20546;-66
2021/05/09 08:27:29;;;;;;;3.17;2.97;;;21.20;61.60;;;;;;5113387;27;20464;-68
2021/05/09 08:29:56;;;;;;;3.87;2.43;;;21.20;61.70;;;;;;5112991;27;20514;-66
2021/05/09 08:32:23;;;;;;;3.07;2.50;;;21.30;62.10;;;;;;5113539;27;20479;-67
2021/05/09 08:34:49;;;;;;;2.37;2.20;;;21.40;62.10;;;;;;5112771;28;20477;-67
2021/05/09 08:37:16;;;;;;;2.47;2.17;;;21.40;61.90;;;;;;5113459;28;20470;-67
2021/05/09 08:39:42;;;;;;;2.27;2.03;;;21.40;61.50;;;;;;5112667;27;20463;-67
2021/05/09 08:42:09;;;;;;;2.00;1.90;;;21.50;61.10;;;;;;5113162;28;20848;-68
2021/05/09 08:44:35;;;;;;;1.60;1.50;;;21.50;61.30;;;;;;5113538;28;20472;-66
2021/05/09 08:47:04;;;;;;;3.33;3.13;;;21.60;61.30;;;;;;5112354;28;20470;-66
2021/05/09 08:49:36;;;;;;;4.30;3.90;;;21.70;61.50;;;;;;5113327;28;20471;-66
2021/05/09 08:52:03;;;;;;;5.43;3.33;;;21.70;61.30;;;;;;5113007;28;20467;-67
2021/05/09 08:54:30;;;;;;;3.47;3.07;;;21.70;61.30;;;;;;5113435;28;20474;-67
2021/05/09 08:56:56;;;;;;;2.90;2.70;;;21.80;61.70;;;;;;5112753;28;20470;-67
2021/05/09 08:59:23;;;;;;;3.37;3.07;;;21.90;61.70;;;;;;5112902;28;20471;-66
2021/05/09 09:01:50;;;;;;;3.30;2.97;;;21.90;61.50;;;;;;5112693;28;20483;-67
2021/05/09 09:04:17;;;;;;;1.90;1.80;;;22.00;61.70;;;;;;5112856;28;20482;-67
2021/05/09 09:06:46;;;;;;;1.67;1.57;;;22.00;61.90;;;;;;5112444;28;20520;-67
2021/05/09 09:09:20;;;;;;;2.37;1.77;;;22.10;61.60;;;;;;5113047;28;20483;-67
2021/05/09 09:11:50;;;;;;;2.17;1.70;;;22.00;60.70;;;;;;5112476;27;20472;-67
2021/05/09 09:14:17;;;;;;;1.90;1.70;;;22.10;61.00;;;;;;5113017;28;20965;-67
2021/05/09 09:16:44;;;;;;;2.80;2.60;;;22.10;61.00;;;;;;5112144;28;20479;-67
2021/05/09 09:19:11;;;;;;;3.90;2.00;;;22.20;60.80;;;;;;5112811;28;20460;-67
2021/05/09 09:21:39;;;;;;;1.83;1.70;;;22.20;60.50;;;;;;5112192;28;20495;-67
2021/05/09 09:24:07;;;;;;;1.90;1.73;;;22.20;60.50;;;;;;5112453;28;20468;-66
2021/05/09 09:26:39;;;;;;;2.20;2.00;;;22.30;60.70;;;;;;5112651;28;20999;-66
2021/05/09 09:29:22;;;;;;;2.83;2.63;;;22.30;61.00;;;;;;5112296;27;20472;-66
2021/05/09 09:31:53;;;;;;;3.23;2.90;;;22.40;61.30;;;;;;5106999;28;20468;-67
2021/05/09 09:34:21;;;;;;;3.00;2.80;;;22.40;61.00;;;;;;5112697;27;20471;-66
2021/05/09 09:36:49;;;;;;;4.30;3.60;;;22.50;60.50;;;;;;5112608;28;20541;-66
2021/05/09 09:39:15;;;;;;;3.30;3.00;;;22.50;61.00;;;;;;5112353;28;20822;-67
2021/05/09 09:41:46;;;;;;;2.70;2.50;;;22.60;61.00;;;;;;5112705;28;20464;-67
2021/05/09 09:44:15;;;;;;;4.53;3.63;;;22.60;60.90;;;;;;5112410;28;20478;-67
2021/05/09 09:46:48;;;;;;;3.50;3.20;;;22.70;60.90;;;;;;5112581;28;20461;-68
2021/05/09 09:49:23;;;;;;;1.93;1.83;;;22.70;61.50;;;;;;5110610;28;20501;-68
2021/05/09 09:51:53;;;;;;;2.30;1.80;;;22.80;60.60;;;;;;5112546;28;20953;-68
2021/05/09 09:54:42;;;;;;;2.37;1.80;;;22.80;60.20;;;;;;5099540;28;20521;-68
2021/05/09 09:57:11;;;;;;;6.00;3.70;;;22.90;60.50;;;;;;5112060;28;20468;-67
2021/05/09 09:59:38;;;;;;;2.17;1.97;;;22.90;61.50;;;;;;5112281;28;20460;-66
2021/05/09 10:02:07;;;;;;;2.70;2.50;;;23.00;61.00;;;;;;5111857;28;20965;-66
2021/05/09 10:04:34;;;;;;;3.83;2.53;;;23.00;61.00;;;;;;5112956;28;20456;-66
2021/05/09 10:07:07;;;;;;;3.27;2.50;;;23.10;61.00;;;;;;5111831;28;20469;-67
2021/05/09 10:09:34;;;;;;;2.80;2.60;;;23.10;60.80;;;;;;5112307;28;21023;-67
2021/05/09 10:12:01;;;;;;;2.37;1.60;;;23.20;61.00;;;;;;5111717;27;20981;-66
2021/05/09 10:14:29;;;;;;;1.63;1.50;;;23.20;59.80;;;;;;5112535;28;20448;-66
2021/05/09 10:16:57;;;;;;;1.87;1.70;;;23.20;59.80;;;;;;5112043;28;21062;-66
2021/05/09 10:19:26;;;;;;;1.80;1.70;;;23.30;59.70;;;;;;5111769;28;21798;-66
2021/05/09 10:21:52;;;;;;;8.30;2.57;;;23.30;59.70;;;;;;5105576;28;20796;-67
2021/05/09 10:24:21;;;;;;;3.97;3.57;;;23.30;59.60;;;;;;5111720;28;20456;-66
2021/05/09 10:26:53;;;;;;;2.93;2.73;;;23.30;59.60;;;;;;5112343;28;20484;-66
2021/05/09 10:29:52;;;;;;;2.70;2.50;;;23.40;60.00;;;;;;5111831;27;20461;-66
2021/05/09 10:32:52;;;;;;;2.27;2.07;;;23.40;60.10;;;;;;5114443;28;20464;-67
2021/05/09 10:35:34;;;;;;;2.77;1.83;;;23.50;60.10;;;;;;5064576;28;20616;-67
2021/05/09 10:38:08;;;;;;;4.00;3.50;;;23.50;59.90;;;;;;5107104;27;20464;-67
2021/05/09 10:40:43;;;;;;;3.60;3.20;;;23.50;59.50;;;;;;5115970;28;20765;-67
2021/05/09 10:43:39;;;;;;;3.97;2.20;;;23.50;59.60;;;;;;5114731;28;20475;-67
2021/05/09 10:46:07;;;;;;;1.70;1.43;;;23.50;59.50;;;;;;5103051;28;20521;-67
2021/05/09 10:48:34;;;;;;;2.73;1.70;;;23.50;59.30;;;;;;5115288;28;20528;-67
2021/05/09 10:51:28;;;;;;;1.90;1.53;;;23.60;59.30;;;;;;5115386;28;20472;-66
2021/05/09 10:53:56;;;;;;;1.83;1.30;;;23.60;59.20;;;;;;5115426;27;20464;-67
2021/05/09 10:56:35;;;;;;;1.73;1.63;;;23.70;59.20;;;;;;5115261;27;20976;-67
2021/05/09 10:59:02;;;;;;;2.63;1.80;;;23.60;59.00;;;;;;5102222;28;20949;-67
2021/05/09 11:01:34;;;;;;;1.57;1.47;;;23.70;59.00;;;;;;5115372;28;20847;-67
2021/05/09 11:04:02;;;;;;;2.00;1.80;;;23.80;59.00;;;;;;5115437;28;20969;-67
2021/05/09 11:06:40;;;;;;;1.63;1.47;;;23.80;59.10;;;;;;5115115;27;20501;-68
2021/05/09 11:09:09;;;;;;;1.40;1.30;;;23.80;58.40;;;;;;5114946;28;20467;-67
2021/05/09 11:11:56;;;;;;;1.83;1.33;;;23.80;58.30;;;;;;5114968;27;20555;-67
2021/05/09 11:14:23;;;;;;;1.77;1.67;;;23.90;58.50;;;;;;5114845;27;20461;-66
2021/05/09 11:17:16;;;;;;;2.80;2.27;;;23.90;58.50;;;;;;5115046;28;20522;-67
2021/05/09 11:19:49;;;;;;;2.53;1.87;;;24.00;58.30;;;;;;5097171;28;20544;-67
2021/05/09 11:22:21;;;;;;;1.97;1.43;;;24.00;57.70;;;;;;5115122;28;20452;-67
2021/05/09 11:24:56;;;;;;;2.07;1.93;;;24.00;57.40;;;;;;5114626;28;20946;-67
2021/05/09 11:27:24;;;;;;;2.83;1.80;;;24.00;57.50;;;;;;5114318;28;20448;-67
2021/05/09 11:29:52;;;;;;;1.73;1.40;;;24.00;57.50;;;;;;5114833;27;20469;-66
2021/05/09 11:32:20;;;;;;;5.00;2.47;;;24.00;57.40;;;;;;5114414;28;20576;-67
2021/05/09 11:34:58;;;;;;;1.73;1.40;;;24.00;56.40;;;;;;5103312;28;20506;-66
2021/05/09 11:37:40;;;;;;;2.00;1.87;;;24.00;56.40;;;;;;5114427;28;21236;-67
2021/05/09 11:40:09;;;;;;;2.70;2.50;;;24.10;56.50;;;;;;5114118;28;20528;-67
2021/05/09 11:42:37;;;;;;;2.40;2.20;;;24.20;56.40;;;;;;5114103;28;20535;-66
2021/05/09 11:45:05;;;;;;;4.13;1.80;;;24.20;56.60;;;;;;5113962;28;20475;-67
2021/05/09 11:47:33;;;;;;;2.47;2.20;;;24.20;56.50;;;;;;5108933;27;20464;-67
2021/05/09 11:50:01;;;;;;;2.30;2.10;;;24.20;56.40;;;;;;5114837;28;20468;-65
2021/05/09 11:52:29;;;;;;;1.70;1.57;;;24.30;56.50;;;;;;5114113;28;20475;-66
2021/05/09 11:54:58;;;;;;;1.60;1.27;;;24.30;55.70;;;;;;5114304;27;20525;-67
2021/05/09 11:57:26;;;;;;;2.50;1.80;;;24.30;55.20;;;;;;5100436;28;20543;-67
2021/05/09 11:59:55;;;;;;;1.70;1.60;;;24.30;55.40;;;;;;5113933;28;20981;-67
2021/05/09 12:02:30;;;;;;;1.73;1.50;;;24.40;55.40;;;;;;5113917;28;20464;-66
2021/05/09 12:04:59;;;;;;;2.63;1.77;;;24.40;55.50;;;;;;5114212;28;20516;-66
2021/05/09 12:07:28;;;;;;;1.80;1.70;;;24.40;55.80;;;;;;5113721;28;20457;-66
2021/05/09 12:10:00;;;;;;;1.60;1.50;;;24.40;54.90;;;;;;5114178;27;20468;-66
2021/05/09 12:12:29;;;;;;;1.70;1.60;;;24.50;54.30;;;;;;5112511;27;20456;-67
2021/05/09 12:15:06;;;;;;;1.47;1.37;;;24.50;53.90;;;;;;5113989;28;20452;-66
2021/05/09 12:17:32;;;;;;;2.23;2.03;;;24.50;53.50;;;;;;5113726;28;20452;-66
2021/05/09 12:19:59;;;;;;;2.90;1.73;;;24.50;53.80;;;;;;5113895;28;20471;-66
2021/05/09 12:22:25;;;;;;;1.63;1.53;;;24.50;53.90;;;;;;5113524;27;20460;-66
2021/05/09 12:24:56;;;;;;;1.97;1.47;;;24.50;54.00;;;;;;5113785;28;20464;-67
2021/05/09 12:27:23;;;;;;;1.50;1.33;;;24.50;53.40;;;;;;5113112;28;20489;-67
2021/05/09 12:29:51;;;;;;;1.33;1.23;;;24.50;53.00;;;;;;5113943;27;20980;-66
2021/05/09 12:32:24;;;;;;;1.33;1.23;;;24.50;52.70;;;;;;5113042;28;20496;-67
2021/05/09 12:35:03;;;;;;;2.63;1.50;;;24.50;52.80;;;;;;5102812;28;20464;-67
2021/05/09 12:37:30;;;;;;;1.70;1.60;;;24.50;53.00;;;;;;5113190;27;20456;-67
2021/05/09 12:40:14;;;;;;;2.77;1.70;;;24.50;53.30;;;;;;5113457;28;20468;-67
2021/05/09 12:42:55;;;;;;;4.93;1.30;;;24.60;53.40;;;;;;5113077;27;20457;-67
2021/05/09 12:45:33;;;;;;;2.17;1.47;;;24.50;52.80;;;;;;5112912;28;20468;-67
2021/05/09 12:48:01;;;;;;;1.53;1.43;;;24.60;52.80;;;;;;5113160;27;20491;-67
2021/05/09 12:50:46;;;;;;;1.50;1.40;;;24.50;52.90;;;;;;5113035;28;20478;-67
2021/05/09 12:53:13;;;;;;;2.30;1.57;;;24.50;52.40;;;;;;5113605;28;20460;-67